Time,TemperatureF,DewpointF,PressureIn,WindDirection,WindDirectionDegrees,WindSpeedMPH,WindSpeedGustMPH,Humidity,HourlyPrecipIn,Conditions,Clouds,dailyrainin,SoftwareType,DateUTC
2017-03-28 00:04:00,56.5,-99.9,29.77,WSW,239,0.0,0.0,0,0.00,,,0.00,weatherlink.com 1.10,2017-03-28 04:04:00,
2017-03-28 00:19:00,56.0,-99.9,29.77,WSW,239,0.0,0.0,0,0.00,,,0.00,weatherlink.com 1.10,2017-03-28 04:19:00,
2017-03-28 00:35:00,55.9,-99.9,29.77,WSW,239,0.0,0.0,0,0.00,,,0.00,weatherlink.com 1.10,2017-03-28 04:35:00,
2017-03-28 00:50:00,55.4,-99.9,29.76,WSW,239,0.0,0.0,0,0.00,,,0.00,weatherlink.com 1.10,2017-03-28 04:50:00,
2017-03-28 01:05:00,54.7,-99.9,29.76,WSW,239,0.0,0.0,0,0.00,,,0.00,weatherlink.com 1.10,2017-03-28 05:05:00,
2017-03-28 01:20:00,54.9,-99.9,29.76,WSW,239,0.0,0.0,0,0.00,,,0.00,weatherlink.com 1.10,2017-03-28 05:20:00,
2017-03-28 01:35:00,54.8,-99.9,29.75,WSW,239,0.0,0.0,0,0.00,,,0.00,weatherlink.com 1.10,2017-03-28 05:35:00,
2017-03-28 01:50:00,54.4,-99.9,29.74,WSW,239,0.0,0.0,0,0.00,,,0.00,weatherlink.com 1.10,2017-03-28 05:50:00,
2017-03-28 02:05:00,54.1,-99.9,29.74,WSW,239,0.0,0.0,0,0.00,,,0.00,weatherlink.com 1.10,2017-03-28 06:05:00,
2017-03-28 02:20:00,54.0,-99.9,29.73,WSW,239,0.0,0.0,0,0.00,,,0.00,weatherlink.com 1.10,2017-03-28 06:20:00,
2017-03-28 02:35:00,54.1,-99.9,29.74,WSW,237,0.0,0.0,0,0.00,,,0.00,weatherlink.com 1.10,2017-03-28 06:35:00,
2017-03-28 02:50:00,54.3,-99.9,29.73,West,261,0.0,0.0,0,0.01,,,0.01,weatherlink.com 1.10,2017-03-28 06:50:00,
2017-03-28 03:05:00,54.1,-99.9,29.71,WSW,251,0.0,0.0,0,0.01,,,0.01,weatherlink.com 1.10,2017-03-28 07:05:00,
2017-03-28 03:20:00,53.5,-99.9,29.72,WSW,255,0.0,0.0,0,0.01,,,0.01,weatherlink.com 1.10,2017-03-28 07:20:00,
2017-03-28 03:35:00,53.6,-99.9,29.71,WSW,255,0.0,0.0,0,0.01,,,0.01,weatherlink.com 1.10,2017-03-28 07:35:00,
2017-03-28 03:50:00,53.9,-99.9,29.72,WSW,255,0.0,0.0,0,0.00,,,0.01,weatherlink.com 1.10,2017-03-28 07:50:00,
2017-03-28 04:06:00,53.9,-99.9,29.72,WNW,289,0.0,4.0,0,0.00,,,0.01,weatherlink.com 1.10,2017-03-28 08:06:00,
2017-03-28 04:21:00,54.0,-99.9,29.71,SW,224,0.0,0.0,0,0.00,,,0.01,weatherlink.com 1.10,2017-03-28 08:21:00,
2017-03-28 04:36:00,54.2,-99.9,29.70,South,180,0.0,0.0,0,0.00,,,0.01,weatherlink.com 1.10,2017-03-28 08:36:00,
2017-03-28 04:51:00,54.1,-99.9,29.70,NE,41,0.0,0.0,0,0.00,,,0.01,weatherlink.com 1.10,2017-03-28 08:51:00,
2017-03-28 05:06:00,54.6,-99.9,29.70,NE,41,0.0,0.0,0,0.00,,,0.01,weatherlink.com 1.10,2017-03-28 09:06:00,
2017-03-28 05:21:00,54.7,-99.9,29.70,NE,41,0.0,0.0,0,0.00,,,0.01,weatherlink.com 1.10,2017-03-28 09:21:00,
2017-03-28 05:36:00,54.5,-99.9,29.71,NE,41,0.0,0.0,0,0.00,,,0.01,weatherlink.com 1.10,2017-03-28 09:36:00,
2017-03-28 05:51:00,54.6,-99.9,29.72,NE,41,0.0,0.0,0,0.00,,,0.01,weatherlink.com 1.10,2017-03-28 09:51:00,
2017-03-28 06:06:00,54.9,-99.9,29.72,NE,41,0.0,0.0,0,0.01,,,0.02,weatherlink.com 1.10,2017-03-28 10:06:00,
2017-03-28 06:21:00,55.0,-99.9,29.72,NE,43,0.0,0.0,0,0.02,,,0.03,weatherlink.com 1.10,2017-03-28 10:21:00,
2017-03-28 06:36:00,54.5,-99.9,29.72,NE,43,0.0,0.0,0,0.04,,,0.05,weatherlink.com 1.10,2017-03-28 10:36:00,
2017-03-28 06:51:00,54.3,-99.9,29.73,NE,43,0.0,0.0,0,0.04,,,0.05,weatherlink.com 1.10,2017-03-28 10:51:00,
2017-03-28 07:06:00,54.4,-99.9,29.73,NE,43,0.0,0.0,0,0.04,,,0.06,weatherlink.com 1.10,2017-03-28 11:06:00,
2017-03-28 07:22:00,54.2,-99.9,29.73,NE,43,0.0,0.0,0,0.02,,,0.06,weatherlink.com 1.10,2017-03-28 11:22:00,
2017-03-28 07:37:00,54.1,-99.9,29.74,NE,43,0.0,0.0,0,0.02,,,0.07,weatherlink.com 1.10,2017-03-28 11:37:00,
2017-03-28 07:52:00,54.3,-99.9,29.74,NE,43,0.0,0.0,0,0.02,,,0.07,weatherlink.com 1.10,2017-03-28 11:52:00,
2017-03-28 08:07:00,54.5,-99.9,29.73,NE,43,0.0,0.0,0,0.01,,,0.07,weatherlink.com 1.10,2017-03-28 12:07:00,
2017-03-28 08:22:00,54.5,-99.9,29.73,NE,43,0.0,0.0,0,0.02,,,0.08,weatherlink.com 1.10,2017-03-28 12:22:00,
2017-03-28 08:37:00,54.9,-99.9,29.73,NE,43,0.0,0.0,0,0.01,,,0.08,weatherlink.com 1.10,2017-03-28 12:37:00,
2017-03-28 08:52:00,54.9,-99.9,29.73,NE,43,0.0,0.0,0,0.01,,,0.08,weatherlink.com 1.10,2017-03-28 12:52:00,
2017-03-28 09:07:00,55.1,-99.9,29.74,NE,43,0.0,0.0,0,0.01,,,0.08,weatherlink.com 1.10,2017-03-28 13:07:00,
2017-03-28 09:22:00,55.3,-99.9,29.74,NE,43,0.0,0.0,0,0.00,,,0.08,weatherlink.com 1.10,2017-03-28 13:22:00,
2017-03-28 09:37:00,56.0,-99.9,29.74,NE,43,0.0,0.0,0,0.00,,,0.08,weatherlink.com 1.10,2017-03-28 13:37:00,
2017-03-28 09:52:00,56.2,-99.9,29.75,NE,43,0.0,0.0,0,0.01,,,0.09,weatherlink.com 1.10,2017-03-28 13:52:00,
2017-03-28 10:07:00,56.3,-99.9,29.75,East,84,0.0,3.0,0,0.02,,,0.10,weatherlink.com 1.10,2017-03-28 14:07:00,
2017-03-28 10:22:00,56.6,-99.9,29.74,East,85,0.0,0.0,0,0.03,,,0.11,weatherlink.com 1.10,2017-03-28 14:22:00,
2017-03-28 10:37:00,56.8,-99.9,29.73,ESE,113,0.0,4.0,0,0.03,,,0.11,weatherlink.com 1.10,2017-03-28 14:37:00,
2017-03-28 10:52:00,57.5,-99.9,29.74,ESE,113,0.0,0.0,0,0.01,,,0.11,weatherlink.com 1.10,2017-03-28 14:52:00,
2017-03-28 11:08:00,58.0,-99.9,29.74,North,355,0.0,0.0,0,0.01,,,0.11,weatherlink.com 1.10,2017-03-28 15:08:00,
2017-03-28 11:23:00,58.8,-99.9,29.75,North,9,0.0,0.0,0,0.00,,,0.11,weatherlink.com 1.10,2017-03-28 15:23:00,
2017-03-28 11:38:00,59.8,-99.9,29.75,North,8,0.0,0.0,0,0.00,,,0.11,weatherlink.com 1.10,2017-03-28 15:38:00,
2017-03-28 11:53:00,61.7,-10.0,29.74,ESE,118,0.0,5.0,5,0.00,,,0.11,weatherlink.com 1.10,2017-03-28 15:53:00,
2017-03-28 12:08:00,62.0,37.0,29.73,SE,139,0.0,7.0,40,0.00,,,0.11,weatherlink.com 1.10,2017-03-28 16:08:00,
2017-03-28 12:23:00,63.0,42.0,29.73,East,85,0.0,7.0,47,0.00,,,0.11,weatherlink.com 1.10,2017-03-28 16:23:00,
2017-03-28 12:38:00,63.9,47.0,29.72,ENE,64,6.0,10.0,54,0.00,,,0.11,weatherlink.com 1.10,2017-03-28 16:38:00,
2017-03-28 12:53:00,64.1,51.0,29.72,NE,40,6.0,9.0,62,0.00,,,0.11,weatherlink.com 1.10,2017-03-28 16:53:00,
2017-03-28 13:08:00,65.7,52.0,29.71,East,101,5.0,11.0,62,0.00,,,0.11,weatherlink.com 1.10,2017-03-28 17:08:00,
2017-03-28 13:23:00,66.3,53.0,29.71,ESE,106,11.0,18.0,62,0.00,,,0.11,weatherlink.com 1.10,2017-03-28 17:23:00,
2017-03-28 13:39:00,67.1,53.0,29.70,East,86,4.0,14.0,61,0.00,,,0.11,weatherlink.com 1.10,2017-03-28 17:39:00,
2017-03-28 13:53:00,68.1,54.0,29.70,ESE,122,8.0,9.0,61,0.00,,,0.11,weatherlink.com 1.10,2017-03-28 17:53:00,
2017-03-28 14:08:00,67.7,53.0,29.70,SSE,147,0.0,12.0,60,0.00,,,0.11,weatherlink.com 1.10,2017-03-28 18:08:00,
2017-03-28 14:24:00,67.6,54.0,29.70,North,353,5.0,9.0,62,0.00,,,0.11,weatherlink.com 1.10,2017-03-28 18:24:00,
2017-03-28 14:39:00,67.9,54.0,29.70,East,83,0.0,9.0,62,0.00,,,0.11,weatherlink.com 1.10,2017-03-28 18:39:00,
2017-03-28 14:54:00,67.0,53.0,29.70,East,85,3.0,15.0,61,0.00,,,0.11,weatherlink.com 1.10,2017-03-28 18:54:00,
2017-03-28 15:09:00,69.0,53.0,29.69,West,274,2.0,11.0,58,0.00,,,0.11,weatherlink.com 1.10,2017-03-28 19:09:00,
2017-03-28 15:24:00,70.0,52.0,29.68,NE,52,8.0,13.0,54,0.00,,,0.11,weatherlink.com 1.10,2017-03-28 19:24:00,
2017-03-28 15:39:00,69.2,51.0,29.69,East,79,1.0,13.0,53,0.00,,,0.11,weatherlink.com 1.10,2017-03-28 19:39:00,
2017-03-28 15:54:00,68.0,51.0,29.69,ESE,106,9.0,11.0,55,0.00,,,0.11,weatherlink.com 1.10,2017-03-28 19:54:00,
2017-03-28 16:09:00,68.3,50.0,29.69,ENE,78,3.0,8.0,53,0.00,,,0.11,weatherlink.com 1.10,2017-03-28 20:09:00,
2017-03-28 16:24:00,68.9,51.0,29.68,NE,48,1.0,12.0,54,0.00,,,0.11,weatherlink.com 1.10,2017-03-28 20:24:00,
2017-03-28 16:39:00,68.5,52.0,29.69,East,99,0.0,8.0,56,0.00,,,0.11,weatherlink.com 1.10,2017-03-28 20:39:00,
2017-03-28 16:54:00,68.3,51.0,29.69,East,91,0.0,10.0,55,0.00,,,0.11,weatherlink.com 1.10,2017-03-28 20:54:00,
2017-03-28 17:09:00,68.0,51.0,29.70,East,89,0.0,9.0,54,0.00,,,0.11,weatherlink.com 1.10,2017-03-28 21:09:00,
2017-03-28 17:24:00,67.6,51.0,29.71,ENE,76,0.0,8.0,56,0.00,,,0.11,weatherlink.com 1.10,2017-03-28 21:24:00,
2017-03-28 17:39:00,67.7,52.0,29.71,SSE,161,5.0,5.0,58,0.00,,,0.11,weatherlink.com 1.10,2017-03-28 21:39:00,
2017-03-28 17:55:00,67.1,52.0,29.72,WSW,244,0.0,3.0,58,0.00,,,0.11,weatherlink.com 1.10,2017-03-28 21:55:00,
2017-03-28 18:10:00,66.2,52.0,29.73,ESE,118,0.0,5.0,61,0.00,,,0.11,weatherlink.com 1.10,2017-03-28 22:10:00,
2017-03-28 18:25:00,65.7,51.0,29.73,WSW,249,0.0,5.0,60,0.00,,,0.11,weatherlink.com 1.10,2017-03-28 22:25:00,
2017-03-28 18:40:00,65.4,52.0,29.74,North,349,0.0,0.0,62,0.00,,,0.11,weatherlink.com 1.10,2017-03-28 22:40:00,
2017-03-28 18:55:00,65.3,50.0,29.75,NNW,335,0.0,3.0,59,0.00,,,0.11,weatherlink.com 1.10,2017-03-28 22:55:00,
2017-03-28 19:10:00,65.5,51.0,29.75,SSW,199,0.0,1.0,59,0.00,,,0.11,weatherlink.com 1.10,2017-03-28 23:10:00,
2017-03-28 19:25:00,65.2,51.0,29.75,WSW,257,0.0,3.0,60,0.00,,,0.11,weatherlink.com 1.10,2017-03-28 23:25:00,
2017-03-28 19:40:00,64.9,51.0,29.76,SSE,167,0.0,4.0,61,0.00,,,0.11,weatherlink.com 1.10,2017-03-28 23:40:00,
2017-03-28 19:55:00,64.3,50.0,29.76,SE,135,0.0,3.0,61,0.00,,,0.11,weatherlink.com 1.10,2017-03-28 23:55:00,
2017-03-28 20:10:00,62.8,50.0,29.77,SSE,158,0.0,7.0,63,0.00,,,0.11,weatherlink.com 1.10,2017-03-29 00:10:00,
2017-03-28 20:25:00,63.1,50.0,29.77,ESE,122,0.0,2.0,62,0.00,,,0.11,weatherlink.com 1.10,2017-03-29 00:25:00,
2017-03-28 20:40:00,62.3,50.0,29.78,South,191,0.0,0.0,64,0.00,,,0.11,weatherlink.com 1.10,2017-03-29 00:40:00,
2017-03-28 20:55:00,60.4,48.0,29.92,South,180,0.0,1.0,64,0.00,,,0.11,weatherlink.com 1.10,2017-03-29 00:55:00,
2017-03-28 21:10:00,60.8,48.0,29.93,SSW,211,0.0,0.0,64,0.00,,,0.11,weatherlink.com 1.10,2017-03-29 01:10:00,
2017-03-28 21:26:00,59.7,47.0,29.94,SE,132,0.0,0.0,64,0.00,,,0.11,weatherlink.com 1.10,2017-03-29 01:26:00,
2017-03-28 21:41:00,59.7,46.0,29.95,SE,135,0.0,0.0,61,0.00,,,0.11,weatherlink.com 1.10,2017-03-29 01:41:00,
2017-03-28 21:56:00,59.1,45.0,29.95,SE,136,0.0,0.0,61,0.00,,,0.11,weatherlink.com 1.10,2017-03-29 01:56:00,
2017-03-28 22:11:00,59.1,45.0,29.96,SSE,158,0.0,4.0,61,0.00,,,0.11,weatherlink.com 1.10,2017-03-29 02:11:00,
2017-03-28 22:26:00,60.1,47.0,29.96,WSW,243,0.0,4.0,62,0.00,,,0.11,weatherlink.com 1.10,2017-03-29 02:26:00,